Time;durP1;ratioP1;P1;durP2;ratioP2;P2;SDS_P1;SDS_P2;PMS_P1;PMS_P2;Temp;Humidity;BMP_temperature;BMP_pressure;BME280_temperature;BME280_humidity;BME280_pressure;Samples;Min_cycle;Max_cycle;Signal;HPM_P1;HPM_P2
2021/01/30 00:01:11;;;;;;;9.73;3.83;;;7.30;93.20;;;;;;5033750;27;20507;-72
2021/01/30 00:03:37;;;;;;;8.93;3.80;;;7.30;92.90;;;;;;5085447;27;20501;-74
2021/01/30 00:06:05;;;;;;;7.75;3.78;;;7.30;92.60;;;;;;5112350;27;20805;-72
2021/01/30 00:08:31;;;;;;;9.00;3.90;;;7.20;92.40;;;;;;5079646;27;20423;-73
2021/01/30 00:10:58;;;;;;;8.35;3.67;;;7.20;92.80;;;;;;5110165;27;20228;-72
2021/01/30 00:13:25;;;;;;;5.43;3.40;;;6.90;93.30;;;;;;5100002;27;20561;-72
2021/01/30 00:15:51;;;;;;;11.07;3.15;;;6.60;93.80;;;;;;5097925;27;20668;-73
2021/01/30 00:18:18;;;;;;;7.22;3.15;;;6.40;94.00;;;;;;5037831;27;20208;-73
2021/01/30 00:20:44;;;;;;;9.65;3.58;;;6.20;94.60;;;;;;5104271;27;20223;-72
2021/01/30 00:23:10;;;;;;;9.43;3.40;;;6.10;94.40;;;;;;5111941;27;20231;-73
2021/01/30 00:25:38;;;;;;;6.65;3.35;;;5.90;94.60;;;;;;5091490;27;20216;-72
2021/01/30 00:28:06;;;;;;;8.80;3.50;;;5.80;94.70;;;;;;5094425;27;20256;-73
2021/01/30 00:30:34;;;;;;;20.92;3.70;;;5.80;95.00;;;;;;5026869;27;20571;-72
2021/01/30 00:33:01;;;;;;;9.35;3.80;;;5.80;95.20;;;;;;5079573;27;20211;-73
2021/01/30 00:35:31;;;;;;;11.98;3.38;;;5.80;95.20;;;;;;5102406;27;20249;-74
2021/01/30 00:37:57;;;;;;;12.50;3.58;;;5.70;95.30;;;;;;5119043;27;20204;-70
2021/01/30 00:40:24;;;;;;;9.25;3.78;;;5.70;95.40;;;;;;5107876;27;20536;-70
2021/01/30 00:42:51;;;;;;;13.65;4.20;;;5.70;95.50;;;;;;5099389;27;20283;-72
2021/01/30 00:45:20;;;;;;;15.07;3.97;;;5.70;95.60;;;;;;5105614;27;20291;-71
2021/01/30 00:47:48;;;;;;;11.93;4.15;;;5.70;95.60;;;;;;5103963;27;20199;-71
2021/01/30 00:50:16;;;;;;;9.60;3.28;;;5.60;95.60;;;;;;5043368;27;20210;-72
2021/01/30 00:52:43;;;;;;;9.70;4.10;;;5.50;95.70;;;;;;5076289;27;20192;-72
2021/01/30 00:55:23;;;;;;;8.57;3.58;;;5.40;95.80;;;;;;5039755;27;20216;-70
2021/01/30 00:57:54;;;;;;;13.30;3.65;;;5.30;95.90;;;;;;5095925;27;20218;-71
2021/01/30 01:00:24;;;;;;;9.32;3.28;;;5.20;96.10;;;;;;5106025;27;20703;-71
2021/01/30 01:02:52;;;;;;;10.38;3.78;;;5.10;96.10;;;;;;5035498;28;20562;-71
2021/01/30 01:05:23;;;;;;;9.77;3.50;;;5.10;96.20;;;;;;5042165;27;20251;-72
2021/01/30 01:07:50;;;;;;;6.10;3.47;;;5.00;96.30;;;;;;5111786;27;20688;-73
2021/01/30 01:10:19;;;;;;;12.27;3.65;;;5.00;96.40;;;;;;5101506;27;20200;-71
2021/01/30 01:12:48;;;;;;;14.57;4.18;;;5.00;96.40;;;;;;5114448;27;20257;-71
2021/01/30 01:15:17;;;;;;;9.18;3.47;;;5.00;96.50;;;;;;5096380;27;20196;-73
2021/01/30 01:17:44;;;;;;;7.78;3.63;;;5.00;96.50;;;;;;5116920;27;20208;-71
2021/01/30 01:20:15;;;;;;;12.88;3.60;;;5.00;96.60;;;;;;5103624;27;20212;-71
2021/01/30 01:22:41;;;;;;;11.63;3.90;;;5.00;96.60;;;;;;5115608;27;20200;-71
2021/01/30 01:25:09;;;;;;;8.93;3.63;;;5.00;96.60;;;;;;5093306;27;21161;-71
2021/01/30 01:27:35;;;;;;;11.95;4.10;;;5.00;96.50;;;;;;5086575;27;20192;-71
2021/01/30 01:30:01;;;;;;;8.40;3.45;;;5.00;96.50;;;;;;5036388;27;20204;-70
2021/01/30 01:32:28;;;;;;;11.18;3.60;;;5.00;96.50;;;;;;5108118;27;20207;-71
2021/01/30 01:34:54;;;;;;;10.30;3.83;;;4.90;96.50;;;;;;5039538;28;20252;-71
2021/01/30 01:37:21;;;;;;;8.80;3.90;;;4.90;96.50;;;;;;5106644;28;20672;-71
2021/01/30 01:39:48;;;;;;;10.57;4.18;;;4.90;96.50;;;;;;5101152;28;20587;-71
2021/01/30 01:42:21;;;;;;;8.45;3.90;;;4.80;96.50;;;;;;5032617;28;20276;-72
2021/01/30 01:44:49;;;;;;;7.20;3.92;;;4.70;96.50;;;;;;5086238;28;20204;-71
2021/01/30 01:47:20;;;;;;;9.63;4.30;;;4.70;96.60;;;;;;5030311;28;20201;-71
2021/01/30 01:49:48;;;;;;;8.27;3.97;;;4.60;96.60;;;;;;5093457;28;20208;-71
2021/01/30 01:52:27;;;;;;;8.73;4.10;;;4.70;96.60;;;;;;5031824;28;20261;-71
2021/01/30 01:54:56;;;;;;;10.52;4.65;;;4.60;96.60;;;;;;5096888;28;20193;-70
2021/01/30 01:57:24;;;;;;;8.73;4.03;;;4.50;96.60;;;;;;5106550;28;20219;-72
2021/01/30 01:59:54;;;;;;;7.28;3.92;;;4.50;96.60;;;;;;5091182;28;20204;-70
2021/01/30 02:02:21;;;;;;;10.40;3.88;;;4.40;96.60;;;;;;5033908;28;20273;-71
2021/01/30 02:04:55;;;;;;;6.63;4.28;;;4.40;96.70;;;;;;5097033;28;20672;-72
2021/01/30 02:07:21;;;;;;;7.95;4.32;;;4.40;96.70;;;;;;5094733;28;20253;-71
2021/01/30 02:09:48;;;;;;;11.30;4.53;;;4.30;96.60;;;;;;5044965;28;20548;-72
2021/01/30 02:12:17;;;;;;;8.98;4.10;;;4.30;96.70;;;;;;5111575;28;20201;-72
2021/01/30 02:14:47;;;;;;;7.55;4.10;;;4.30;96.70;;;;;;5092557;28;20203;-71
2021/01/30 02:17:33;;;;;;;7.70;4.68;;;4.30;96.80;;;;;;5094767;28;20276;-71
2021/01/30 02:20:37;;;;;;;7.30;3.80;;;4.30;97.10;;;;;;5100029;28;20200;-71
2021/01/30 02:23:39;;;;;;;6.75;4.10;;;4.30;96.80;;;;;;5103860;28;20272;-71
2021/01/30 02:26:38;;;;;;;7.47;4.10;;;4.20;96.80;;;;;;5095880;28;20231;-72
2021/01/30 02:29:26;;;;;;;6.47;3.95;;;4.20;96.80;;;;;;5109273;28;20200;-72
2021/01/30 02:32:19;;;;;;;6.65;4.00;;;4.10;96.90;;;;;;5097886;28;20212;-71
2021/01/30 02:35:03;;;;;;;8.35;4.40;;;4.10;96.90;;;;;;5087627;28;20215;-71
2021/01/30 02:37:38;;;;;;;8.73;4.07;;;4.10;96.90;;;;;;5101924;28;20837;-70
2021/01/30 02:40:11;;;;;;;8.15;4.18;;;4.10;97.00;;;;;;5107337;27;20204;-72
2021/01/30 02:42:42;;;;;;;7.07;4.05;;;4.10;97.00;;;;;;5091430;27;20207;-71
2021/01/30 02:45:11;;;;;;;5.15;3.67;;;4.10;97.10;;;;;;5115039;27;20219;-73
2021/01/30 02:47:41;;;;;;;7.15;4.10;;;4.10;97.10;;;;;;5037612;27;20211;-71
2021/01/30 02:50:13;;;;;;;9.48;4.15;;;4.10;97.30;;;;;;5106314;27;20664;-72
2021/01/30 02:52:42;;;;;;;5.70;4.07;;;4.00;97.30;;;;;;5026801;27;20208;-72
2021/01/30 02:55:12;;;;;;;5.32;4.00;;;4.10;97.30;;;;;;5105591;27;20192;-70
2021/01/30 02:57:40;;;;;;;5.18;3.55;;;4.10;97.30;;;;;;5044589;27;20213;-72
2021/01/30 03:00:10;;;;;;;6.38;3.80;;;4.10;97.20;;;;;;5094814;27;20203;-72
2021/01/30 03:02:37;;;;;;;7.70;3.45;;;4.10;97.20;;;;;;5113559;27;20230;-73
2021/01/30 03:05:07;;;;;;;4.15;3.13;;;4.00;97.10;;;;;;5075148;27;20617;-73
2021/01/30 03:07:58;;;;;;;4.57;3.65;;;4.00;97.10;;;;;;5114273;27;20197;-73
2021/01/30 03:10:31;;;;;;;4.75;3.53;;;3.90;97.10;;;;;;5101905;27;20185;-72
2021/01/30 03:13:07;;;;;;;5.88;3.60;;;3.80;97.00;;;;;;5109750;27;20196;-72
2021/01/30 03:15:38;;;;;;;6.20;3.17;;;3.80;97.10;;;;;;5101640;27;20204;-72
2021/01/30 03:18:06;;;;;;;4.82;3.47;;;3.80;97.20;;;;;;5113856;27;20204;-73
2021/01/30 03:20:37;;;;;;;5.32;3.72;;;3.80;97.10;;;;;;5042511;27;20207;-72
2021/01/30 03:23:05;;;;;;;5.13;3.65;;;3.80;97.10;;;;;;5075331;27;20259;-73
2021/01/30 03:25:33;;;;;;;5.57;3.92;;;3.90;97.20;;;;;;5035450;27;21693;-71
2021/01/30 03:28:01;;;;;;;5.13;3.78;;;3.90;97.10;;;;;;5113171;27;20204;-71
2021/01/30 03:30:29;;;;;;;6.00;3.33;;;3.90;97.00;;;;;;5107111;27;20200;-73
2021/01/30 03:32:55;;;;;;;5.32;3.85;;;3.80;96.90;;;;;;5079332;27;20199;-73
2021/01/30 03:35:22;;;;;;;5.70;4.10;;;3.80;97.00;;;;;;5085087;27;20200;-72
2021/01/30 03:37:49;;;;;;;5.90;3.72;;;3.80;97.00;;;;;;5117485;27;20216;-74
2021/01/30 03:40:19;;;;;;;5.55;3.85;;;3.80;97.00;;;;;;5088886;27;20200;-71
2021/01/30 03:42:45;;;;;;;5.43;3.85;;;3.80;97.00;;;;;;5118361;27;20261;-73
2021/01/30 03:45:16;;;;;;;5.47;3.92;;;3.80;97.00;;;;;;5101063;27;20576;-73
2021/01/30 03:47:43;;;;;;;6.07;3.65;;;3.80;96.90;;;;;;5106708;27;20211;-72
2021/01/30 03:50:12;;;;;;;6.35;4.03;;;3.80;96.90;;;;;;5102487;27;20207;-73
2021/01/30 03:52:38;;;;;;;7.63;4.47;;;3.80;96.90;;;;;;5098369;27;20204;-73
2021/01/30 03:55:06;;;;;;;5.38;3.83;;;3.80;97.00;;;;;;5107109;27;20201;-73
2021/01/30 03:57:33;;;;;;;6.05;3.65;;;3.80;97.00;;;;;;5105603;27;20225;-72
2021/01/30 04:00:00;;;;;;;5.15;3.50;;;3.80;96.90;;;;;;5107709;27;20696;-73
2021/01/30 04:02:26;;;;;;;7.38;3.47;;;3.80;96.90;;;;;;5099930;27;20964;-73
2021/01/30 04:04:53;;;;;;;3.78;3.03;;;3.70;96.90;;;;;;5098461;27;20219;-71
2021/01/30 04:07:19;;;;;;;5.45;3.20;;;3.70;96.90;;;;;;5104897;27;20206;-70
2021/01/30 04:09:47;;;;;;;4.88;3.03;;;3.70;96.90;;;;;;5104554;27;20204;-73
2021/01/30 04:12:14;;;;;;;5.07;3.20;;;3.70;96.90;;;;;;5106152;27;20519;-72
2021/01/30 04:14:41;;;;;;;4.32;3.00;;;3.70;96.90;;;;;;5082876;27;20442;-71
2021/01/30 04:17:09;;;;;;;4.40;3.10;;;3.70;96.90;;;;;;5120436;27;20268;-72
2021/01/30 04:19:36;;;;;;;5.20;3.50;;;3.60;96.90;;;;;;5109224;27;20612;-72
2021/01/30 04:22:02;;;;;;;5.75;3.88;;;3.60;96.80;;;;;;5101179;27;20212;-72
2021/01/30 04:24:29;;;;;;;4.07;2.95;;;3.60;96.90;;;;;;5098388;27;20228;-73
2021/01/30 04:26:55;;;;;;;6.30;3.47;;;3.50;96.90;;;;;;5097548;27;20231;-72
2021/01/30 04:29:22;;;;;;;4.65;3.33;;;3.50;97.00;;;;;;5105667;27;20215;-72
2021/01/30 04:31:54;;;;;;;5.13;3.53;;;3.50;97.00;;;;;;5097988;27;20756;-74
2021/01/30 04:34:20;;;;;;;5.88;3.78;;;3.40;97.00;;;;;;5039730;27;20193;-73
2021/01/30 04:36:47;;;;;;;5.25;3.80;;;3.40;97.10;;;;;;5102445;27;20204;-71
2021/01/30 04:39:13;;;;;;;6.57;3.70;;;3.40;97.10;;;;;;5079427;27;20203;-70
2021/01/30 04:41:49;;;;;;;5.50;3.65;;;3.30;97.40;;;;;;5097729;27;20739;-72
2021/01/30 04:44:20;;;;;;;5.20;3.97;;;3.30;97.20;;;;;;5098969;27;20239;-72
2021/01/30 04:47:03;;;;;;;5.40;3.92;;;3.30;97.30;;;;;;5108538;27;20208;-72
2021/01/30 04:49:42;;;;;;;6.25;4.00;;;3.20;97.30;;;;;;5103430;27;20200;-73
2021/01/30 04:52:21;;;;;;;6.90;3.90;;;3.20;97.40;;;;;;5106262;27;20204;-73
2021/01/30 04:55:02;;;;;;;4.78;3.40;;;3.20;97.40;;;;;;5087937;27;20197;-72
2021/01/30 04:57:37;;;;;;;8.32;4.13;;;3.20;97.50;;;;;;5093388;27;20273;-72
2021/01/30 05:00:24;;;;;;;6.07;3.85;;;3.10;97.40;;;;;;5087100;27;20617;-73
2021/01/30 05:03:22;;;;;;;6.63;4.40;;;3.00;97.50;;;;;;5107690;27;20242;-72
2021/01/30 05:05:54;;;;;;;6.68;4.18;;;3.00;97.60;;;;;;5026032;28;20219;-73
2021/01/30 05:08:26;;;;;;;6.25;3.75;;;3.00;97.60;;;;;;5110519;27;20204;-73
2021/01/30 05:10:58;;;;;;;7.60;4.60;;;2.90;97.70;;;;;;5107142;27;20645;-71
2021/01/30 05:13:28;;;;;;;6.90;4.78;;;3.00;97.90;;;;;;5089570;27;20257;-72
2021/01/30 05:15:57;;;;;;;9.38;5.28;;;3.00;98.00;;;;;;5104462;27;20194;-73
2021/01/30 05:18:28;;;;;;;8.50;5.20;;;3.00;98.10;;;;;;5110047;27;20570;-72
2021/01/30 05:20:59;;;;;;;9.20;5.65;;;3.00;98.10;;;;;;5037194;28;20296;-73
2021/01/30 05:23:27;;;;;;;10.38;5.60;;;3.00;98.20;;;;;;5102494;27;20220;-72
2021/01/30 05:26:00;;;;;;;9.45;5.53;;;3.00;98.20;;;;;;5093687;27;20700;-73
2021/01/30 05:28:35;;;;;;;11.40;5.38;;;3.00;98.70;;;;;;5098355;27;20660;-72
2021/01/30 05:31:27;;;;;;;9.80;5.80;;;3.10;98.50;;;;;;5099352;27;20192;-71
2021/01/30 05:34:10;;;;;;;8.60;5.45;;;3.10;98.60;;;;;;5087454;27;20214;-72
2021/01/30 05:36:45;;;;;;;8.93;5.75;;;3.20;98.50;;;;;;5105253;27;20204;-73
2021/01/30 05:39:37;;;;;;;11.10;5.80;;;3.20;98.50;;;;;;5086732;28;20204;-72
2021/01/30 05:42:11;;;;;;;10.57;6.20;;;3.20;98.50;;;;;;5106946;28;20201;-73
2021/01/30 05:44:45;;;;;;;8.68;5.97;;;3.10;98.60;;;;;;5094489;28;20196;-72
2021/01/30 05:47:15;;;;;;;9.68;5.65;;;3.10;98.60;;;;;;5110322;28;20249;-72
2021/01/30 05:49:55;;;;;;;9.68;6.38;;;3.10;98.70;;;;;;5090220;28;20204;-72
2021/01/30 05:52:27;;;;;;;13.35;6.57;;;3.20;98.80;;;;;;5022196;28;20600;-72
2021/01/30 05:54:53;;;;;;;10.52;6.75;;;3.20;98.70;;;;;;5112180;28;20201;-73
2021/01/30 05:57:20;;;;;;;9.13;6.15;;;3.20;98.70;;;;;;5109015;28;20667;-72
2021/01/30 05:59:49;;;;;;;9.30;6.07;;;3.20;98.60;;;;;;5087734;28;20207;-72
2021/01/30 06:02:18;;;;;;;9.57;6.10;;;3.20;98.60;;;;;;5034237;28;20532;-73
2021/01/30 06:04:46;;;;;;;9.13;6.20;;;3.10;98.70;;;;;;5086501;28;20671;-73
2021/01/30 06:07:35;;;;;;;10.90;6.45;;;3.10;98.70;;;;;;5088645;28;20203;-71
2021/01/30 06:10:23;;;;;;;9.57;6.10;;;3.00;98.80;;;;;;5096805;28;20675;-73
2021/01/30 06:13:07;;;;;;;10.40;6.55;;;3.00;98.80;;;;;;5114634;28;20208;-73
2021/01/30 06:15:36;;;;;;;10.23;6.13;;;3.00;98.80;;;;;;5102327;27;20204;-71
2021/01/30 06:18:30;;;;;;;9.50;6.28;;;3.00;98.80;;;;;;5111882;27;20215;-72
2021/01/30 06:21:01;;;;;;;9.32;6.28;;;3.00;98.80;;;;;;5098155;27;20269;-72
2021/01/30 06:23:28;;;;;;;10.85;6.40;;;2.90;98.70;;;;;;5096770;27;21052;-73
2021/01/30 06:26:13;;;;;;;10.90;6.22;;;2.90;98.70;;;;;;5137931;27;20286;-72
2021/01/30 06:28:45;;;;;;;10.23;5.47;;;2.80;98.80;;;;;;5025229;27;20208;-71
2021/01/30 06:31:18;;;;;;;10.90;6.05;;;2.80;98.90;;;;;;5109383;27;20203;-71
2021/01/30 06:33:48;;;;;;;10.77;5.95;;;2.90;99.00;;;;;;5036828;27;20204;-71
2021/01/30 06:36:19;;;;;;;8.60;5.85;;;2.90;99.00;;;;;;5120175;27;20704;-71
2021/01/30 06:38:49;;;;;;;11.68;5.63;;;2.90;99.00;;;;;;5079565;27;20208;-74
2021/01/30 06:41:21;;;;;;;9.48;6.40;;;2.90;98.90;;;;;;5055583;27;20204;-74
2021/01/30 06:43:54;;;;;;;9.70;5.55;;;2.80;98.90;;;;;;5071826;27;20660;-73
2021/01/30 06:46:22;;;;;;;8.75;6.05;;;2.80;98.90;;;;;;5097702;27;20212;-72
2021/01/30 06:48:50;;;;;;;7.57;5.20;;;2.90;99.00;;;;;;5025097;28;20200;-73
2021/01/30 06:51:26;;;;;;;8.45;6.00;;;2.90;99.00;;;;;;5102646;27;20192;-71
2021/01/30 06:53:52;;;;;;;11.48;6.13;;;2.90;99.00;;;;;;5083493;27;20231;-72
2021/01/30 06:56:24;;;;;;;7.95;5.53;;;2.90;99.10;;;;;;5094026;27;20189;-72
2021/01/30 06:58:52;;;;;;;9.65;5.40;;;2.90;99.10;;;;;;5078522;27;20219;-73
2021/01/30 07:01:23;;;;;;;9.23;5.93;;;3.00;99.50;;;;;;5089194;27;20203;-73
2021/01/30 07:04:08;;;;;;;8.13;5.57;;;2.90;99.10;;;;;;5029563;27;20249;-73
2021/01/30 07:06:51;;;;;;;9.75;5.70;;;2.90;99.10;;;;;;5099932;27;20217;-72
2021/01/30 07:09:39;;;;;;;10.27;6.07;;;2.90;99.20;;;;;;5083781;27;20217;-73
2021/01/30 07:12:12;;;;;;;7.38;5.38;;;2.90;99.30;;;;;;5096564;27;20196;-72
2021/01/30 07:14:51;;;;;;;9.40;5.85;;;2.90;99.30;;;;;;5085549;27;20208;-72
2021/01/30 07:17:43;;;;;;;9.65;6.45;;;2.90;99.30;;;;;;5088255;27;20231;-72
2021/01/30 07:20:20;;;;;;;9.68;5.97;;;2.90;99.30;;;;;;5077833;27;20193;-71
2021/01/30 07:22:54;;;;;;;9.00;6.10;;;2.90;99.30;;;;;;5094619;27;20192;-73
2021/01/30 07:25:23;;;;;;;8.77;6.05;;;2.90;99.30;;;;;;5071721;27;20787;-73
2021/01/30 07:27:55;;;;;;;14.05;6.57;;;2.90;99.40;;;;;;5070128;27;20257;-72
2021/01/30 07:30:34;;;;;;;11.55;6.65;;;2.90;99.40;;;;;;5079205;27;20217;-71
2021/01/30 07:33:06;;;;;;;11.10;6.65;;;3.00;99.40;;;;;;5105804;27;20664;-73
2021/01/30 07:35:40;;;;;;;10.07;6.50;;;3.10;99.40;;;;;;5061380;27;20203;-73
2021/01/30 07:38:17;;;;;;;10.88;6.65;;;3.10;99.40;;;;;;5089471;27;20216;-72
2021/01/30 07:40:49;;;;;;;10.13;6.63;;;3.10;99.30;;;;;;5070413;27;20563;-74
2021/01/30 07:43:20;;;;;;;14.85;8.07;;;3.10;99.40;;;;;;5091118;27;20272;-73
2021/01/30 07:45:51;;;;;;;11.73;6.80;;;3.20;99.40;;;;;;5037661;27;20759;-74
2021/01/30 07:48:23;;;;;;;8.85;6.25;;;3.20;99.40;;;;;;5080985;27;20213;-71
2021/01/30 07:50:53;;;;;;;9.77;6.22;;;3.20;99.40;;;;;;5082616;27;20565;-72
2021/01/30 07:53:23;;;;;;;10.15;6.95;;;3.20;99.50;;;;;;5078340;27;20579;-72
2021/01/30 07:56:05;;;;;;;10.38;6.05;;;3.20;99.50;;;;;;5053349;27;20211;-74
2021/01/30 07:58:47;;;;;;;9.18;6.18;;;3.30;99.40;;;;;;5078072;27;20557;-72
2021/01/30 08:01:52;;;;;;;12.27;6.55;;;3.20;99.40;;;;;;5081620;27;20603;-73
2021/01/30 08:04:57;;;;;;;8.60;5.72;;;3.20;99.40;;;;;;5048351;27;20212;-71
2021/01/30 08:07:34;;;;;;;11.10;6.32;;;3.20;99.80;;;;;;5104021;27;20207;-72
2021/01/30 08:10:07;;;;;;;8.85;5.93;;;3.20;99.40;;;;;;5087675;27;20204;-72
2021/01/30 08:12:47;;;;;;;8.63;5.85;;;3.20;99.40;;;;;;5070385;27;20706;-73
2021/01/30 08:15:23;;;;;;;9.85;6.57;;;3.20;99.30;;;;;;5057480;27;20284;-74
2021/01/30 08:17:57;;;;;;;8.65;6.38;;;3.20;99.30;;;;;;5036311;27;20302;-73
2021/01/30 08:20:33;;;;;;;11.20;6.28;;;3.20;99.20;;;;;;5102751;27;20249;-72
2021/01/30 08:23:05;;;;;;;10.45;6.63;;;3.20;99.10;;;;;;5112436;27;20210;-73
2021/01/30 08:25:38;;;;;;;10.25;6.78;;;3.20;99.10;;;;;;5042695;27;20704;-71
2021/01/30 08:28:14;;;;;;;10.10;6.38;;;3.20;99.10;;;;;;5105935;27;20234;-71
2021/01/30 08:30:43;;;;;;;9.27;6.50;;;3.20;99.20;;;;;;5102539;27;20192;-72
2021/01/30 08:33:10;;;;;;;9.55;6.57;;;3.20;99.20;;;;;;5081135;27;20223;-71
2021/01/30 08:35:55;;;;;;;9.68;6.80;;;3.20;99.20;;;;;;5089660;27;20992;-72
2021/01/30 08:38:34;;;;;;;9.98;7.13;;;3.20;99.20;;;;;;5095002;27;20209;-71
2021/01/30 08:41:37;;;;;;;13.13;6.63;;;3.30;99.50;;;;;;5110775;27;20200;-72
2021/01/30 08:44:04;;;;;;;16.38;9.48;;;3.30;99.20;;;;;;5103776;27;20248;-71
2021/01/30 08:46:33;;;;;;;10.82;6.72;;;3.30;99.20;;;;;;5111889;27;20226;-71
2021/01/30 08:49:06;;;;;;;9.95;6.85;;;3.40;99.20;;;;;;5082310;27;20203;-74
2021/01/30 08:51:32;;;;;;;8.60;6.30;;;3.40;99.20;;;;;;5113065;27;20205;-71
2021/01/30 08:54:32;;;;;;;10.15;6.57;;;3.40;99.00;;;;;;5088864;27;20196;-76
2021/01/30 08:57:01;;;;;;;7.70;5.90;;;3.40;99.00;;;;;;5062207;27;20205;-73
2021/01/30 08:59:45;;;;;;;8.45;5.97;;;3.30;98.90;;;;;;5021920;27;20200;-74
2021/01/30 09:02:49;;;;;;;9.98;6.68;;;3.30;98.90;;;;;;5031467;27;20207;-75
2021/01/30 09:05:42;;;;;;;9.90;6.43;;;3.20;99.20;;;;;;5056225;27;20204;-74
2021/01/30 09:08:44;;;;;;;8.35;6.13;;;3.30;99.00;;;;;;5075291;27;20226;-75
2021/01/30 09:11:43;;;;;;;8.93;6.45;;;3.30;99.00;;;;;;5031826;27;20195;-73
2021/01/30 09:14:31;;;;;;;9.88;6.57;;;3.30;98.90;;;;;;5030747;27;20212;-75
2021/01/30 09:17:11;;;;;;;11.60;7.55;;;3.30;98.90;;;;;;5047586;27;20678;-74
2021/01/30 09:19:48;;;;;;;7.55;5.90;;;3.40;98.90;;;;;;5066021;27;20576;-75
2021/01/30 09:22:22;;;;;;;9.52;6.30;;;3.40;98.80;;;;;;5050028;27;20261;-73
2021/01/30 09:25:09;;;;;;;9.48;6.40;;;3.40;98.70;;;;;;5037062;27;20227;-74
2021/01/30 09:27:46;;;;;;;10.38;6.93;;;3.50;98.70;;;;;;5053725;27;20204;-73
2021/01/30 09:30:32;;;;;;;10.43;6.93;;;3.50;98.70;;;;;;5039379;27;20208;-74
2021/01/30 09:33:01;;;;;;;9.98;6.75;;;3.50;98.60;;;;;;5041686;27;20204;-73
2021/01/30 09:35:34;;;;;;;8.88;6.32;;;3.50;98.60;;;;;;5038633;27;20196;-72
2021/01/30 09:38:18;;;;;;;9.93;6.97;;;3.50;98.60;;;;;;5045548;27;20217;-73
2021/01/30 09:40:44;;;;;;;9.10;6.30;;;3.50;98.50;;;;;;5051606;28;20211;-74
2021/01/30 09:43:11;;;;;;;9.45;6.35;;;3.50;98.60;;;;;;5049267;28;20217;-73
2021/01/30 09:45:38;;;;;;;10.63;7.07;;;3.50;98.60;;;;;;5053313;28;20216;-74
2021/01/30 09:48:10;;;;;;;10.02;6.82;;;3.50;98.50;;;;;;5055131;28;20215;-74
2021/01/30 09:50:40;;;;;;;10.23;6.65;;;3.50;98.50;;;;;;5068306;27;20210;-73
2021/01/30 09:53:13;;;;;;;10.57;7.45;;;3.50;98.50;;;;;;5041636;27;20196;-73
2021/01/30 09:55:40;;;;;;;10.35;6.68;;;3.50;98.50;;;;;;5084247;27;20204;-72
2021/01/30 09:58:10;;;;;;;10.07;6.70;;;3.50;98.40;;;;;;5061786;27;20229;-73
2021/01/30 10:00:39;;;;;;;12.05;7.97;;;3.50;98.40;;;;;;5097066;27;20211;-73
2021/01/30 10:03:16;;;;;;;10.98;7.80;;;3.50;98.40;;;;;;5063403;27;20568;-73
2021/01/30 10:05:43;;;;;;;12.52;7.70;;;3.50;98.50;;;;;;5061319;27;20204;-73
2021/01/30 10:08:23;;;;;;;12.20;8.15;;;3.60;98.60;;;;;;5034078;27;20231;-73
2021/01/30 10:10:49;;;;;;;10.85;7.70;;;3.60;98.50;;;;;;5052415;27;20207;-72
2021/01/30 10:13:18;;;;;;;11.77;7.68;;;3.60;98.50;;;;;;5082557;27;20215;-74
2021/01/30 10:15:53;;;;;;;11.77;7.82;;;3.70;98.50;;;;;;5066418;27;20199;-73
2021/01/30 10:18:20;;;;;;;11.38;7.30;;;3.70;98.40;;;;;;5058071;27;20227;-73
2021/01/30 10:20:50;;;;;;;9.88;7.10;;;3.70;98.30;;;;;;5044195;27;20661;-73
2021/01/30 10:23:29;;;;;;;12.52;7.65;;;3.70;98.20;;;;;;5066083;27;20201;-74
2021/01/30 10:26:05;;;;;;;10.18;6.90;;;3.80;98.20;;;;;;5025573;27;20704;-74
2021/01/30 10:28:41;;;;;;;8.85;6.63;;;3.70;98.00;;;;;;5052367;27;20237;-73
2021/01/30 10:31:08;;;;;;;12.60;6.82;;;3.70;97.90;;;;;;5056948;27;20380;-73
2021/01/30 10:33:35;;;;;;;11.70;7.35;;;3.70;98.00;;;;;;5121792;27;20345;-74
2021/01/30 10:36:03;;;;;;;11.75;6.80;;;3.70;97.90;;;;;;5050398;27;20256;-73
2021/01/30 10:38:32;;;;;;;10.43;7.30;;;3.70;97.90;;;;;;5030740;27;20211;-73
2021/01/30 10:41:01;;;;;;;9.63;6.68;;;3.70;97.90;;;;;;5062206;27;20196;-73
2021/01/30 10:43:31;;;;;;;16.20;9.65;;;3.70;97.90;;;;;;5097278;27;20232;-73
2021/01/30 10:46:00;;;;;;;9.40;6.47;;;3.70;97.90;;;;;;5104362;27;20570;-72
2021/01/30 10:48:29;;;;;;;10.00;6.70;;;3.70;97.90;;;;;;5109386;27;20554;-74
2021/01/30 10:51:05;;;;;;;11.05;6.80;;;3.70;97.90;;;;;;5085777;27;20214;-73
2021/01/30 10:53:34;;;;;;;11.00;7.78;;;3.70;97.80;;;;;;5098458;27;20249;-75
2021/01/30 10:56:12;;;;;;;9.82;7.00;;;3.80;97.90;;;;;;5107968;27;20631;-73
2021/01/30 10:58:39;;;;;;;10.55;6.72;;;3.80;97.90;;;;;;5081681;27;20212;-73
2021/01/30 11:01:08;;;;;;;9.90;6.85;;;3.80;97.90;;;;;;5108044;27;20544;-73
2021/01/30 11:03:47;;;;;;;9.45;6.50;;;3.90;98.00;;;;;;5090213;27;20211;-74
2021/01/30 11:06:18;;;;;;;8.57;6.13;;;3.90;98.00;;;;;;5073961;27;20218;-75
2021/01/30 11:08:45;;;;;;;8.25;6.10;;;3.90;97.90;;;;;;5092385;27;20695;-73
2021/01/30 11:11:21;;;;;;;8.82;6.53;;;4.00;98.00;;;;;;5039403;27;20648;-73
2021/01/30 11:13:48;;;;;;;10.35;6.43;;;4.00;98.00;;;;;;5070632;27;20298;-72
2021/01/30 11:16:18;;;;;;;10.05;6.95;;;4.10;98.00;;;;;;5083813;27;20220;-75
2021/01/30 11:18:47;;;;;;;9.73;6.88;;;4.10;98.00;;;;;;5093396;27;20211;-74
2021/01/30 11:21:32;;;;;;;8.98;6.38;;;4.10;98.00;;;;;;5098447;27;20283;-73
2021/01/30 11:23:59;;;;;;;9.70;6.05;;;4.10;98.00;;;;;;5097848;27;20260;-73
2021/01/30 11:26:40;;;;;;;11.02;6.68;;;4.20;97.90;;;;;;5105046;27;20250;-73
2021/01/30 11:29:32;;;;;;;7.88;5.70;;;4.20;97.90;;;;;;5104361;27;20200;-78
2021/01/30 11:32:00;;;;;;;9.32;6.57;;;4.30;97.80;;;;;;5112876;27;20204;-73
2021/01/30 11:34:28;;;;;;;12.43;8.00;;;4.30;97.80;;;;;;5039019;27;20977;-73
2021/01/30 11:36:56;;;;;;;10.50;7.57;;;4.60;96.80;;;;;;5093171;27;20411;-73
2021/01/30 11:39:28;;;;;;;7.72;6.00;;;4.90;96.10;;;;;;5110863;27;20201;-73
2021/01/30 11:41:55;;;;;;;9.70;6.00;;;4.80;96.30;;;;;;5088715;27;20201;-72
2021/01/30 11:44:21;;;;;;;10.10;6.68;;;4.70;96.50;;;;;;5110148;27;20792;-73
2021/01/30 11:46:49;;;;;;;7.85;5.85;;;4.70;96.60;;;;;;5098005;27;20235;-72
2021/01/30 11:49:15;;;;;;;8.95;6.18;;;4.70;96.70;;;;;;5103903;27;20206;-73
2021/01/30 11:51:43;;;;;;;7.45;5.32;;;4.70;96.70;;;;;;5087594;27;20226;-72
2021/01/30 11:54:12;;;;;;;7.40;5.55;;;4.70;96.60;;;;;;5066264;27;20304;-72
2021/01/30 11:56:38;;;;;;;10.35;5.70;;;4.70;96.60;;;;;;5090080;27;20219;-73
2021/01/30 11:59:05;;;;;;;7.43;5.22;;;4.70;96.50;;;;;;5102586;27;20542;-72
2021/01/30 12:01:32;;;;;;;7.82;5.40;;;4.70;96.40;;;;;;5103248;27;20736;-73
2021/01/30 12:03:58;;;;;;;7.85;5.40;;;4.70;96.30;;;;;;5033062;27;21338;-72
2021/01/30 12:06:25;;;;;;;8.38;5.70;;;4.70;96.30;;;;;;5074856;27;20267;-72
2021/01/30 12:08:52;;;;;;;10.55;5.57;;;4.70;96.30;;;;;;5069976;27;20727;-73
2021/01/30 12:11:20;;;;;;;13.85;9.05;;;4.80;96.20;;;;;;5108918;27;20192;-72
2021/01/30 12:13:47;;;;;;;10.27;6.75;;;4.80;96.10;;;;;;5095537;27;20253;-72
2021/01/30 12:16:14;;;;;;;7.95;5.93;;;4.80;96.10;;;;;;5108155;27;20562;-73
2021/01/30 12:18:41;;;;;;;8.57;6.18;;;4.80;96.00;;;;;;5030392;27;20219;-73
2021/01/30 12:21:07;;;;;;;7.90;6.00;;;4.80;95.90;;;;;;5105737;27;20273;-72
2021/01/30 12:23:34;;;;;;;8.63;6.22;;;4.80;95.80;;;;;;5103728;27;20249;-73
2021/01/30 12:26:01;;;;;;;7.72;5.50;;;4.80;95.70;;;;;;5104470;27;20643;-72
2021/01/30 12:28:30;;;;;;;7.40;5.28;;;4.70;95.70;;;;;;5081549;27;20276;-73
2021/01/30 12:30:57;;;;;;;8.48;5.93;;;4.70;95.70;;;;;;5085058;27;20548;-75
2021/01/30 12:33:24;;;;;;;7.03;5.10;;;4.70;95.70;;;;;;5046976;27;20204;-74
2021/01/30 12:35:50;;;;;;;8.57;6.07;;;4.70;95.60;;;;;;5084315;27;20188;-74
2021/01/30 12:38:17;;;;;;;10.65;7.05;;;4.70;95.50;;;;;;5028681;27;20598;-74
2021/01/30 12:40:46;;;;;;;11.25;7.00;;;4.70;95.50;;;;;;5087736;27;20680;-74
2021/01/30 12:43:14;;;;;;;8.70;6.25;;;4.70;95.50;;;;;;5074065;27;20652;-75
2021/01/30 12:45:41;;;;;;;11.05;6.35;;;4.70;95.50;;;;;;5076073;27;20204;-78
2021/01/30 12:48:08;;;;;;;10.95;5.93;;;4.70;95.70;;;;;;5067704;27;20193;-74
2021/01/30 12:50:35;;;;;;;14.07;8.65;;;4.70;95.30;;;;;;5072667;27;20576;-74
2021/01/30 12:53:01;;;;;;;9.68;6.70;;;4.70;95.30;;;;;;5089285;27;20218;-74
2021/01/30 12:55:28;;;;;;;10.60;7.50;;;4.70;95.30;;;;;;5068956;27;20694;-75
2021/01/30 12:57:55;;;;;;;10.95;7.43;;;4.70;95.40;;;;;;5065587;27;20269;-74
2021/01/30 13:00:23;;;;;;;12.07;8.25;;;4.70;95.30;;;;;;5065915;27;20673;-74
2021/01/30 13:02:51;;;;;;;12.00;8.38;;;4.60;95.30;;;;;;5106521;27;20200;-76
2021/01/30 13:05:18;;;;;;;11.07;7.80;;;4.60;95.40;;;;;;5103078;27;20200;-75
2021/01/30 13:07:47;;;;;;;11.65;7.88;;;4.60;95.70;;;;;;5091427;27;20576;-74
2021/01/30 13:10:17;;;;;;;12.48;8.18;;;4.60;95.40;;;;;;5045931;27;20274;-74
2021/01/30 13:12:44;;;;;;;13.65;7.97;;;4.60;95.50;;;;;;5108041;27;20532;-74
2021/01/30 13:15:12;;;;;;;12.73;8.35;;;4.60;95.60;;;;;;5093220;27;20575;-74
2021/01/30 13:17:38;;;;;;;12.80;7.68;;;4.60;95.60;;;;;;5113470;27;20388;-75
2021/01/30 13:20:08;;;;;;;12.25;8.27;;;4.60;95.50;;;;;;5091823;27;20200;-74